createdAt,value
2023-04-25T00:00:55.561Z,96801.72
2023-04-25T00:03:26.664Z,96787.25
2023-04-25T00:05:58.544Z,96800.63
2023-04-25T00:08:29.394Z,96797.31
2023-04-25T00:11:00.628Z,96790.44
2023-04-25T00:13:31.350Z,96799.44
2023-04-25T00:16:01.922Z,96798.91
2023-04-25T00:18:34.537Z,96799.16
2023-04-25T00:21:04.426Z,96785.63
2023-04-25T00:23:37.150Z,96787.97
2023-04-25T00:26:08.904Z,96781.47
2023-04-25T00:28:40.364Z,96787.84
2023-04-25T00:31:10.941Z,96788.16
2023-04-25T00:33:43.986Z,96776.88
2023-04-25T00:36:13.867Z,96790.28
2023-04-25T00:38:44.839Z,96779.97
2023-04-25T00:41:16.978Z,96771.41
2023-04-25T00:43:48.277Z,96777.25
2023-04-25T00:46:18.969Z,96776.22
2023-04-25T00:48:50.001Z,96772.44
2023-04-25T00:51:22.725Z,96767.75
2023-04-25T00:53:53.782Z,96780.19
2023-04-25T00:56:25.946Z,96777.16
2023-04-25T00:58:57.947Z,96778.78
2023-04-25T01:01:28.428Z,96775.63
2023-04-25T01:04:01.372Z,96770.97
2023-04-25T01:06:33.088Z,96768.84
2023-04-25T01:09:04.254Z,96779.44
2023-04-25T01:11:35.817Z,96770.66
2023-04-25T01:14:05.664Z,96769.03
2023-04-25T01:16:36.035Z,96767.09
2023-04-25T01:19:09.874Z,96766.16
2023-04-25T01:21:42.892Z,96775.19
2023-04-25T01:24:12.852Z,96775.19
2023-04-25T01:26:46.087Z,96774.38
2023-04-25T01:29:16.474Z,96774.59
2023-04-25T01:31:47.177Z,96777.25
2023-04-25T01:34:17.692Z,96778.72
2023-04-25T01:36:49.796Z,96775.91
2023-04-25T01:39:20.992Z,96772.59
2023-04-25T01:41:52.168Z,96780.38
2023-04-25T01:44:23.172Z,96774.84
2023-04-25T01:46:52.686Z,96779.50
2023-04-25T01:49:23.605Z,96781.25
2023-04-25T01:51:55.639Z,96784.56
2023-04-25T01:54:26.322Z,96781.09
2023-04-25T01:56:56.301Z,96788.94
2023-04-25T01:59:26.960Z,96778.56
2023-04-25T02:01:56.999Z,96778.38
2023-04-25T02:04:27.100Z,96784.16
2023-04-25T02:06:59.585Z,96776.16
2023-04-25T02:09:29.964Z,96776.09
2023-04-25T02:12:00.438Z,96781.50
2023-04-25T02:14:31.087Z,96781.16
2023-04-25T02:17:01.541Z,96781.50
2023-04-25T02:19:32.099Z,96775.69
2023-04-25T02:22:04.455Z,96784.22
2023-04-25T02:24:36.225Z,96789.19
2023-04-25T02:27:07.685Z,96791.13
2023-04-25T02:29:38.238Z,96796.63
2023-04-25T02:32:08.887Z,96809.75
2023-04-25T02:34:40.552Z,96800.16
2023-04-25T02:37:12.904Z,96802.78
2023-04-25T02:39:42.735Z,96800.34
2023-04-25T02:42:13.010Z,96806.16
2023-04-25T02:44:43.581Z,96801.75
2023-04-25T02:47:13.835Z,96806.72
2023-04-25T02:49:43.967Z,96796.38
2023-04-25T02:52:15.261Z,96797.34
2023-04-25T02:54:45.636Z,96796.31
2023-04-25T02:57:16.201Z,96789.91
2023-04-25T02:59:46.900Z,96786.50
2023-04-25T03:02:16.197Z,96791.53
2023-04-25T03:04:47.775Z,96796.66
2023-04-25T03:07:19.085Z,96797.19
2023-04-25T03:09:49.098Z,96793.94
2023-04-25T03:12:19.219Z,96807.34
2023-04-25T03:14:49.231Z,96804.66
2023-04-25T03:17:20.215Z,96806.81
2023-04-25T03:19:51.307Z,96807.75
2023-04-25T03:22:23.136Z,96813.28
2023-04-25T03:24:53.845Z,96805.38
2023-04-25T03:27:24.120Z,96806.06
2023-04-25T03:29:54.893Z,96793.72
2023-04-25T03:32:25.142Z,96788.50
2023-04-25T03:34:55.835Z,96792.81
2023-04-25T03:37:27.189Z,96790.31
2023-04-25T03:39:57.363Z,96799.03
2023-04-25T03:42:27.761Z,96794.94
2023-04-25T03:44:58.149Z,96794.34
2023-04-25T03:47:28.497Z,96795.91
2023-04-25T03:49:59.043Z,96803.53
2023-04-25T03:52:30.502Z,96805.69
2023-04-25T03:55:01.329Z,96804.53
2023-04-25T03:57:31.253Z,96802.16
2023-04-25T04:00:01.097Z,96796.81
2023-04-25T04:02:31.220Z,96798.16
2023-04-25T04:05:01.952Z,96806.13
2023-04-25T04:07:38.117Z,96798.38
2023-04-25T04:10:09.319Z,96807.69
2023-04-25T04:12:40.066Z,96800.41
2023-04-25T04:15:11.870Z,96802.91
2023-04-25T04:17:42.973Z,96811.94
2023-04-25T04:20:14.127Z,96812.34
2023-04-25T04:22:46.223Z,96812.16
2023-04-25T04:25:16.639Z,96810.63
2023-04-25T04:27:47.422Z,96822.97
2023-04-25T04:30:17.455Z,96821.56
2023-04-25T04:32:48.377Z,96828.13
2023-04-25T04:35:20.714Z,96837.41
2023-04-25T04:37:52.724Z,96821.72
2023-04-25T04:40:24.392Z,96832.41
2023-04-25T04:42:58.101Z,96815.88
2023-04-25T04:45:29.126Z,96816.09
2023-04-25T04:47:59.570Z,96820.31
2023-04-25T04:50:29.595Z,96822.31
2023-04-25T04:53:05.341Z,96817.59
2023-04-25T04:55:35.304Z,96823.84
2023-04-25T04:58:05.188Z,96816.91
2023-04-25T05:00:36.095Z,96822.16
2023-04-25T05:03:07.654Z,96819.19
2023-04-25T05:05:41.342Z,96820.19
2023-04-25T05:08:13.200Z,96813.63
2023-04-25T05:10:43.587Z,96821.66
2023-04-25T05:13:14.124Z,96815.97
2023-04-25T05:15:44.665Z,96816.25
2023-04-25T05:18:15.174Z,96809.50
2023-04-25T05:20:44.674Z,96811.69
2023-04-25T05:23:16.635Z,96805.84
2023-04-25T05:25:46.781Z,96809.81
2023-04-25T05:28:16.848Z,96805.47
2023-04-25T05:30:47.168Z,96808.13
2023-04-25T05:33:17.450Z,96799.00
2023-04-25T05:35:47.855Z,96799.28
2023-04-25T05:38:20.178Z,96798.44
2023-04-25T05:40:50.897Z,96801.56
2023-04-25T05:43:21.381Z,96803.47
2023-04-25T05:45:52.052Z,96804.94
2023-04-25T05:48:23.146Z,96808.63
2023-04-25T05:50:53.685Z,96803.59
2023-04-25T05:53:25.117Z,96796.47
2023-04-25T05:55:54.985Z,96796.59
2023-04-25T05:58:25.674Z,96801.13
2023-04-25T06:00:56.147Z,96796.72
2023-04-25T06:03:26.341Z,96805.97
2023-04-25T06:05:57.758Z,96805.84
2023-04-25T06:08:30.833Z,96804.22
2023-04-25T06:11:01.347Z,96809.50
2023-04-25T06:13:32.306Z,96809.44
2023-04-25T06:16:02.813Z,96806.44
2023-04-25T06:18:33.827Z,96805.69
2023-04-25T06:21:04.224Z,96803.00
2023-04-25T06:23:36.085Z,96801.81
2023-04-25T06:26:05.992Z,96803.03
2023-04-25T06:28:37.647Z,96803.34
2023-04-25T06:31:09.125Z,96799.66
2023-04-25T06:33:40.611Z,96789.06
2023-04-25T06:36:11.894Z,96785.78
2023-04-25T06:38:44.285Z,96786.63
2023-04-25T06:41:14.630Z,96786.16
2023-04-25T06:43:45.038Z,96784.78
2023-04-25T06:46:15.465Z,96774.53
2023-04-25T06:48:45.466Z,96776.00
2023-04-25T06:51:15.906Z,96780.59
2023-04-25T06:53:48.040Z,96772.25
2023-04-25T06:56:19.355Z,96768.97
2023-04-25T06:58:49.830Z,96767.06
2023-04-25T07:01:20.877Z,96763.81
2023-04-25T07:03:53.002Z,96752.88
2023-04-25T07:06:23.702Z,96751.44
2023-04-25T07:08:56.946Z,96750.50
2023-04-25T07:11:27.416Z,96745.66
2023-04-25T07:13:57.161Z,96741.66
2023-04-25T07:16:26.902Z,96739.91
2023-04-25T07:18:57.365Z,96741.47
2023-04-25T07:21:28.030Z,96731.00
2023-04-25T07:23:59.565Z,96732.06
2023-04-25T07:26:30.780Z,96729.91
2023-04-25T07:29:01.213Z,96723.66
2023-04-25T07:31:32.600Z,96718.53
2023-04-25T07:34:02.951Z,96717.34
2023-04-25T07:36:33.145Z,96720.16
2023-04-25T07:39:04.919Z,96730.19
2023-04-25T07:41:36.552Z,96723.94
2023-04-25T07:44:06.814Z,96742.38
2023-04-25T07:46:38.003Z,96742.34
2023-04-25T07:49:08.207Z,96750.50
2023-04-25T07:51:38.784Z,96744.28
2023-04-25T07:54:10.700Z,96743.75
2023-04-25T07:56:51.567Z,96734.75
2023-04-25T07:59:23.992Z,96730.94
2023-04-25T08:01:55.421Z,96728.41
2023-04-25T08:04:25.192Z,96732.69
2023-04-25T08:06:56.376Z,96718.94
2023-04-25T08:09:29.017Z,96734.69
2023-04-25T08:11:59.980Z,96732.31
2023-04-25T08:14:33.066Z,96730.66
2023-04-25T08:17:03.845Z,96728.09
2023-04-25T08:19:34.708Z,96735.78
2023-04-25T08:22:06.261Z,96735.44
2023-04-25T08:24:39.506Z,96736.97
2023-04-25T08:27:11.414Z,96726.44
2023-04-25T08:29:43.015Z,96731.31
2023-04-25T08:32:14.202Z,96726.53
2023-04-25T08:34:45.286Z,96731.66
2023-04-25T08:37:15.632Z,96734.38
2023-04-25T08:39:48.288Z,96731.56
2023-04-25T08:42:19.342Z,96736.53
2023-04-25T08:44:49.404Z,96734.50
2023-04-25T08:47:19.938Z,96728.94
2023-04-25T08:49:50.873Z,96726.56
2023-04-25T08:52:43.313Z,96737.63
2023-04-25T08:55:16.493Z,96731.22
2023-04-25T08:57:49.096Z,96736.69
2023-04-25T09:00:21.417Z,96733.63
2023-04-25T09:02:51.667Z,96737.72
2023-04-25T09:05:22.469Z,96735.34
2023-04-25T09:07:52.810Z,96738.94
2023-04-25T09:10:24.909Z,96738.94
2023-04-25T09:13:14.094Z,96736.53
2023-04-25T09:15:54.229Z,96733.16
2023-04-25T09:18:30.716Z,96741.63
2023-04-25T09:21:13.835Z,96736.44
2023-04-25T09:23:50.040Z,96737.19
2023-04-25T09:26:24.732Z,96733.38
2023-04-25T09:29:09.296Z,96739.47
2023-04-25T09:31:39.608Z,96737.59
2023-04-25T09:34:13.795Z,96737.25
2023-04-25T09:36:43.970Z,96738.34
2023-04-25T09:39:18.860Z,96736.78
2023-04-25T09:41:50.558Z,96746.03
2023-04-25T09:44:28.180Z,96742.16
2023-04-25T09:46:58.566Z,96733.22
2023-04-25T09:49:34.838Z,96728.78
2023-04-25T09:52:08.837Z,96733.69
2023-04-25T09:54:39.271Z,96725.81
2023-04-25T09:57:15.506Z,96733.91
2023-04-25T09:59:49.908Z,96725.22
2023-04-25T10:02:22.726Z,96722.47
2023-04-25T10:04:56.597Z,96721.56
2023-04-25T10:07:30.190Z,96714.44
2023-04-25T10:10:04.814Z,96703.28
2023-04-25T10:12:37.935Z,96701.63
2023-04-25T10:15:11.108Z,96704.50
2023-04-25T10:17:43.550Z,96694.06
2023-04-25T10:20:14.263Z,96698.34
2023-04-25T10:22:47.141Z,96689.44
2023-04-25T10:25:17.462Z,96689.75
2023-04-25T10:27:49.517Z,96677.19
2023-04-25T10:30:20.125Z,96684.78
2023-04-25T10:32:51.939Z,96684.41
2023-04-25T10:35:27.713Z,96674.13
2023-04-25T10:38:08.243Z,96669.63
2023-04-25T10:40:40.790Z,96670.03
2023-04-25T10:43:41.683Z,96675.19
2023-04-25T10:46:25.363Z,96667.91
2023-04-25T10:48:57.406Z,96663.97
2023-04-25T10:51:34.587Z,96661.09
2023-04-25T10:54:11.673Z,96650.34
2023-04-25T10:56:45.782Z,96657.75
2023-04-25T10:59:24.532Z,96650.84
2023-04-25T11:01:56.366Z,96646.13
2023-04-25T11:04:31.517Z,96650.50
2023-04-25T11:07:12.241Z,96648.94
2023-04-25T11:09:42.918Z,96645.94
2023-04-25T11:12:14.766Z,96647.16
2023-04-25T11:14:46.120Z,96637.06
2023-04-25T11:17:16.953Z,96638.84
2023-04-25T11:19:47.202Z,96631.56
2023-04-25T11:22:17.345Z,96636.31
2023-04-25T11:24:48.227Z,96629.00
2023-04-25T11:27:18.703Z,96637.50
2023-04-25T11:29:51.455Z,96628.25
2023-04-25T11:32:24.741Z,96634.63
2023-04-25T11:34:56.477Z,96633.84
2023-04-25T11:37:28.838Z,96628.38
2023-04-25T11:39:59.152Z,96629.59
2023-04-25T11:42:29.718Z,96643.06
2023-04-25T11:45:02.511Z,96644.38
2023-04-25T11:47:34.172Z,96650.31
2023-04-25T11:50:05.209Z,96649.00
2023-04-25T11:52:46.008Z,96649.56
2023-04-25T11:55:17.961Z,96654.72
2023-04-25T11:57:50.195Z,96652.63
2023-04-25T12:00:24.284Z,96659.91
2023-04-25T12:02:56.557Z,96659.91
2023-04-25T12:05:32.784Z,96651.72
2023-04-25T12:08:17.119Z,96652.38
2023-04-25T12:10:48.151Z,96647.81
2023-04-25T12:13:25.171Z,96653.38
2023-04-25T12:15:58.048Z,96654.72
2023-04-25T12:18:29.852Z,96659.44
2023-04-25T12:21:01.337Z,96649.25
2023-04-25T12:23:32.772Z,96644.69
2023-04-25T12:26:05.396Z,96648.97
2023-04-25T12:28:36.483Z,96643.25
2023-04-25T12:31:09.639Z,96643.84
2023-04-25T12:33:40.659Z,96639.00
2023-04-25T12:36:13.136Z,96644.03
2023-04-25T12:38:44.698Z,96648.41
2023-04-25T12:41:15.013Z,96648.22
2023-04-25T12:43:45.950Z,96648.38
2023-04-25T12:46:18.269Z,96642.94
2023-04-25T12:48:49.264Z,96647.94
2023-04-25T12:51:19.913Z,96642.63
2023-04-25T12:53:57.377Z,96650.66
2023-04-25T12:56:31.828Z,96643.81
2023-04-25T12:59:04.808Z,96646.56
2023-04-25T13:01:38.806Z,96642.34
2023-04-25T13:04:09.544Z,96642.63
2023-04-25T13:06:39.756Z,96643.81
2023-04-25T13:09:10.652Z,96653.53
2023-04-25T13:11:42.987Z,96648.09
2023-04-25T13:14:13.015Z,96640.50
2023-04-25T13:16:44.714Z,96637.50
2023-04-25T13:19:15.248Z,96632.53
2023-04-25T13:21:45.087Z,96644.44
2023-04-25T13:24:14.776Z,96636.88
2023-04-25T13:26:45.419Z,96636.88
2023-04-25T13:29:16.215Z,96633.09
2023-04-25T13:31:48.471Z,96628.78
2023-04-25T13:34:19.542Z,96624.25
2023-04-25T13:36:49.901Z,96624.38
2023-04-25T13:39:20.557Z,96614.97
2023-04-25T13:41:50.525Z,96623.78
2023-04-25T13:44:21.363Z,96629.44
2023-04-25T13:46:53.869Z,96624.72
2023-04-25T13:49:24.239Z,96622.06
2023-04-25T13:51:54.069Z,96622.47
2023-04-25T13:54:26.329Z,96618.22
2023-04-25T13:56:59.904Z,96621.00
2023-04-25T13:59:32.882Z,96620.97
2023-04-25T14:02:05.079Z,96619.75
2023-04-25T14:04:35.183Z,96621.22
2023-04-25T14:07:06.282Z,96615.06
2023-04-25T14:09:37.910Z,96617.69
2023-04-25T14:12:08.274Z,96616.97
2023-04-25T14:14:39.839Z,96612.00
2023-04-25T14:17:12.552Z,96616.34
2023-04-25T14:19:46.756Z,96618.31
2023-04-25T14:22:17.187Z,96608.56
2023-04-25T14:24:48.733Z,96612.59
2023-04-25T14:27:19.336Z,96603.94
2023-04-25T14:29:50.594Z,96611.56
2023-04-25T14:32:23.322Z,96612.84
2023-04-25T14:34:54.485Z,96610.75
2023-04-25T14:37:25.222Z,96614.84
2023-04-25T14:39:55.162Z,96620.13
2023-04-25T14:42:26.066Z,96612.84
2023-04-25T14:44:56.424Z,96620.56
2023-04-25T14:47:29.517Z,96614.88
2023-04-25T14:50:00.589Z,96617.97
2023-04-25T14:52:32.346Z,96621.88
2023-04-25T14:55:06.145Z,96634.28
2023-04-25T14:57:37.169Z,96638.34
2023-04-25T15:00:11.408Z,96650.53
2023-04-25T15:02:44.173Z,96642.47
2023-04-25T15:05:15.466Z,96652.00
2023-04-25T15:07:45.889Z,96639.16
2023-04-25T15:10:17.814Z,96653.53
2023-04-25T15:12:48.756Z,96653.25
2023-04-25T15:15:26.013Z,96652.94
2023-04-25T15:17:59.889Z,96651.44
2023-04-25T15:20:30.127Z,96653.13
2023-04-25T15:23:00.598Z,96651.13
2023-04-25T15:25:31.954Z,96649.75
2023-04-25T15:28:02.949Z,96649.47
2023-04-25T15:30:33.614Z,96652.50
2023-04-25T15:33:06.327Z,96646.41
2023-04-25T15:35:36.797Z,96653.19
2023-04-25T15:38:07.746Z,96654.31
2023-04-25T15:40:38.898Z,96657.25
2023-04-25T15:43:16.306Z,96637.00
2023-04-25T15:45:47.934Z,96645.91
2023-04-25T15:48:21.000Z,96654.84
2023-04-25T15:50:51.751Z,96647.03
2023-04-25T15:53:23.829Z,96655.59
2023-04-25T15:55:55.148Z,96659.31
2023-04-25T15:58:27.939Z,96662.09
2023-04-25T16:01:02.263Z,96653.75
2023-04-25T16:03:36.489Z,96644.84
2023-04-25T16:06:08.657Z,96640.75
2023-04-25T16:08:40.664Z,96645.50
2023-04-25T16:11:15.149Z,96647.44
2023-04-25T16:13:45.757Z,96632.78
2023-04-25T16:16:17.138Z,96645.53
2023-04-25T16:18:49.819Z,96647.97
2023-04-25T16:21:21.791Z,96643.78
2023-04-25T16:23:55.253Z,96638.94
2023-04-25T16:26:26.035Z,96644.28
2023-04-25T16:28:56.858Z,96646.03
2023-04-25T16:31:29.117Z,96635.63
2023-04-25T16:34:03.019Z,96644.44
2023-04-25T16:36:33.980Z,96641.75
2023-04-25T16:39:04.725Z,96648.03
2023-04-25T16:41:37.953Z,96637.91
2023-04-25T16:44:09.234Z,96651.53
2023-04-25T16:46:40.136Z,96646.03
2023-04-25T16:49:12.867Z,96650.75
2023-04-25T16:51:43.670Z,96652.69
2023-04-25T16:54:14.453Z,96649.16
2023-04-25T16:56:46.319Z,96655.59
2023-04-25T16:59:16.877Z,96656.59
2023-04-25T17:01:48.039Z,96663.25
2023-04-25T17:04:20.234Z,96669.19
2023-04-25T17:06:51.653Z,96674.94
2023-04-25T17:09:21.721Z,96673.56
2023-04-25T17:11:52.032Z,96676.16
2023-04-25T17:14:22.377Z,96683.84
2023-04-25T17:16:52.149Z,96698.69
2023-04-25T17:19:23.941Z,96694.47
2023-04-25T17:21:55.516Z,96701.44
2023-04-25T17:24:25.848Z,96690.06
2023-04-25T17:26:58.275Z,96718.56
2023-04-25T17:29:28.702Z,96726.94
2023-04-25T17:32:00.121Z,96730.81
2023-04-25T17:34:38.101Z,96740.06
2023-04-25T17:37:15.912Z,96744.13
2023-04-25T17:39:47.196Z,96747.88
2023-04-25T17:42:17.744Z,96759.81
2023-04-25T17:44:48.500Z,96757.22
2023-04-25T17:47:19.123Z,96766.09
2023-04-25T17:49:51.838Z,96779.28
2023-04-25T17:52:23.666Z,96777.22
2023-04-25T17:54:54.220Z,96789.69
2023-04-25T17:57:25.896Z,96799.81
2023-04-25T17:59:57.150Z,96802.81
2023-04-25T18:02:28.128Z,96801.00
2023-04-25T18:05:09.746Z,96805.31
2023-04-25T18:07:43.504Z,96806.25
2023-04-25T18:10:14.413Z,96808.72
2023-04-25T18:12:45.014Z,96814.75
2023-04-25T18:15:16.077Z,96829.84
2023-04-25T18:17:46.792Z,96825.47
2023-04-25T18:20:22.065Z,96834.91
2023-04-25T18:22:53.922Z,96842.03
2023-04-25T18:25:27.587Z,96838.81
2023-04-25T18:27:57.681Z,96836.13
2023-04-25T18:30:27.826Z,96842.44
2023-04-25T18:32:59.025Z,96851.47
2023-04-25T18:35:31.526Z,96859.88
2023-04-25T18:38:04.882Z,96864.06
2023-04-25T18:40:36.270Z,96873.03
2023-04-25T18:43:11.701Z,96879.69
2023-04-25T18:45:42.704Z,96888.81
2023-04-25T18:48:12.962Z,96900.03
2023-04-25T18:50:44.837Z,96903.72
2023-04-25T18:53:15.280Z,96906.09
2023-04-25T18:55:45.174Z,96918.44
2023-04-25T18:58:16.215Z,96926.59
2023-04-25T19:00:47.915Z,96922.91
2023-04-25T19:03:18.980Z,96924.84
2023-04-25T19:05:50.934Z,96936.53
2023-04-25T19:08:23.394Z,96939.59
2023-04-25T19:10:54.839Z,96947.31
2023-04-25T19:13:25.847Z,96952.59
2023-04-25T19:15:58.227Z,96946.53
2023-04-25T19:18:33.007Z,96952.97
2023-04-25T19:21:06.213Z,96951.97
2023-04-25T19:23:37.128Z,96948.69
2023-04-25T19:26:07.907Z,96956.25
2023-04-25T19:28:38.269Z,96955.84
2023-04-25T19:31:09.362Z,96958.31
2023-04-25T19:33:39.261Z,96962.03
2023-04-25T19:36:11.103Z,96965.34
2023-04-25T19:38:43.463Z,96972.72
2023-04-25T19:41:13.238Z,96972.31
2023-04-25T19:43:43.945Z,96977.69
2023-04-25T19:46:14.864Z,96978.97
2023-04-25T19:48:45.491Z,96985.28
2023-04-25T19:51:18.010Z,96985.78
2023-04-25T19:53:48.142Z,96987.50
2023-04-25T19:56:18.825Z,96998.59
2023-04-25T19:58:49.662Z,96995.53
2023-04-25T20:01:23.198Z,97004.13
2023-04-25T20:03:54.045Z,96997.66
2023-04-25T20:06:26.966Z,97009.94
2023-04-25T20:08:58.214Z,97006.28
2023-04-25T20:11:30.183Z,97013.94
2023-04-25T20:13:59.871Z,97008.22
2023-04-25T20:16:31.654Z,97012.41
2023-04-25T20:19:02.527Z,97021.78
2023-04-25T20:21:35.126Z,97017.56
2023-04-25T20:24:08.089Z,97014.56
2023-04-25T20:26:38.229Z,97005.66
2023-04-25T20:29:08.144Z,97006.78
2023-04-25T20:31:38.177Z,97015.25
2023-04-25T20:34:09.655Z,97020.06
2023-04-25T20:36:41.316Z,97023.94
2023-04-25T20:39:12.031Z,97030.63
2023-04-25T20:41:42.435Z,97029.56
2023-04-25T20:44:12.920Z,97039.63
2023-04-25T20:46:43.314Z,97034.81
2023-04-25T20:49:13.479Z,97039.00
2023-04-25T20:51:45.459Z,97053.06
2023-04-25T20:54:16.087Z,97052.56
2023-04-25T20:56:46.668Z,97050.59
2023-04-25T20:59:17.348Z,97049.41
2023-04-25T21:01:47.992Z,97060.94
2023-04-25T21:04:18.776Z,97058.59
2023-04-25T21:06:50.939Z,97064.34
2023-04-25T21:09:22.191Z,97067.75
2023-04-25T21:11:51.805Z,97073.94
2023-04-25T21:14:23.148Z,97069.53
2023-04-25T21:16:53.638Z,97076.53
2023-04-25T21:19:23.836Z,97073.13
2023-04-25T21:21:55.543Z,97070.53
2023-04-25T21:24:28.012Z,97074.13
2023-04-25T21:26:57.723Z,97075.72
2023-04-25T21:29:28.263Z,97083.03
2023-04-25T21:31:59.194Z,97084.94
2023-04-25T21:34:30.231Z,97079.69
2023-04-25T21:37:02.302Z,97085.22
2023-04-25T21:39:33.268Z,97091.16
2023-04-25T21:42:03.506Z,97085.94
2023-04-25T21:44:35.136Z,97092.09
2023-04-25T21:47:06.333Z,97088.22
2023-04-25T21:49:36.930Z,97095.34
2023-04-25T21:52:10.633Z,97099.50
2023-04-25T21:54:41.534Z,97102.38
2023-04-25T21:57:12.246Z,97099.28
2023-04-25T21:59:42.160Z,97107.66
2023-04-25T22:02:12.525Z,97102.91
2023-04-25T22:04:45.925Z,97112.97
2023-04-25T22:07:18.083Z,97114.09
2023-04-25T22:09:55.077Z,97126.41
2023-04-25T22:12:26.239Z,97127.66
2023-04-25T22:14:57.394Z,97128.78
2023-04-25T22:17:28.540Z,97133.47
2023-04-25T22:20:00.502Z,97143.06
2023-04-25T22:22:32.434Z,97143.72
2023-04-25T22:25:02.682Z,97136.38
2023-04-25T22:27:32.737Z,97143.38
2023-04-25T22:30:02.673Z,97139.78
2023-04-25T22:32:33.926Z,97140.44
2023-04-25T22:35:05.455Z,97135.78
2023-04-25T22:37:38.692Z,97135.22
2023-04-25T22:40:10.875Z,97145.72
2023-04-25T22:42:42.571Z,97136.47
2023-04-25T22:45:14.130Z,97140.72
2023-04-25T22:47:44.529Z,97145.78
2023-04-25T22:50:17.349Z,97147.69
2023-04-25T22:52:49.292Z,97146.31
2023-04-25T22:55:20.900Z,97149.44
2023-04-25T22:57:50.665Z,97147.44
2023-04-25T23:00:22.500Z,97149.25
2023-04-25T23:02:53.387Z,97156.78
2023-04-25T23:05:25.694Z,97161.09
2023-04-25T23:07:57.909Z,97165.59
2023-04-25T23:10:30.979Z,97171.44
2023-04-25T23:13:01.972Z,97164.53
2023-04-25T23:15:32.917Z,97169.69
2023-04-25T23:18:03.605Z,97170.16
2023-04-25T23:20:34.130Z,97181.59
2023-04-25T23:23:05.689Z,97183.19
2023-04-25T23:25:40.324Z,97177.53
2023-04-25T23:28:11.009Z,97187.06
2023-04-25T23:30:42.285Z,97181.38
2023-04-25T23:33:12.575Z,97191.19
2023-04-25T23:35:43.206Z,97193.59
2023-04-25T23:38:17.182Z,97193.78
2023-04-25T23:40:47.698Z,97192.03
2023-04-25T23:43:17.422Z,97191.25
2023-04-25T23:45:47.777Z,97188.50
2023-04-25T23:48:18.371Z,97185.09
2023-04-25T23:50:48.122Z,97180.97
2023-04-25T23:53:19.830Z,97187.13
2023-04-25T23:55:50.086Z,97189.69
2023-04-25T23:58:21.156Z,97194.00
